This is the latest recevied weather packets stored in our database for station/object SQ9MHX-13. If no packets are shown the sender has not sent any weather packets the latest 10 day(s).
| Time | Temp. | Humidity | Pressure | Rain* | Wind** | Luminosity | Snow |
|---|---|---|---|---|---|---|---|
| 1777848074 | 11.11° C | 63% | 972.3 hPa | - | 0 m/s | - | - |
| 1777847776 | 10° C | 65% | 972.2 hPa | - | 0 m/s | - | - |
| 1777847478 | 11.11° C | 64% | 970.9 hPa | - | 0 m/s | - | - |
| 1777846880 | 15° C | 45% | 966.3 hPa | - | 0 m/s | - | - |
| 1777846582 | 15° C | 45% | 966 hPa | - | 0 m/s | - | - |
| 1777846283 | 15° C | 43% | 965.8 hPa | - | 0 m/s | - | - |
| 1777845985 | 15° C | 43% | 966.1 hPa | - | 0 m/s | - | - |
| 1777845686 | 15° C | 45% | 966.6 hPa | - | 0 m/s | - | - |
| 1777845387 | 13.89° C | 47% | 967.5 hPa | - | 0 m/s | - | - |
| 1777845089 | 12.78° C | 51% | 966.9 hPa | - | 0 m/s | - | - |
| 1777844790 | 15° C | 42% | 965.6 hPa | - | 0 m/s | - | - |
| 1777844498 | 15° C | 44% | 966.1 hPa | - | 0 m/s | - | - |
| 1777843297 | 12.22° C | 56% | 970.1 hPa | - | 0 m/s | - | - |
| 1777842700 | 12.22° C | 55% | 969.4 hPa | - | 0 m/s | - | - |
| 1777842402 | 12.22° C | 54% | 969.3 hPa | - | 0 m/s | - | - |
| 1777842103 | 12.22° C | 55% | 969.1 hPa | - | 0 m/s | - | - |
| 1777841805 | 12.78° C | 56% | 968.9 hPa | - | 0 m/s | - | - |
| 1777841506 | 12.78° C | 53% | 967.8 hPa | - | 0 m/s | - | - |
| 1777841208 | 13.89° C | 52% | 966.1 hPa | - | 0 m/s | - | - |
| 1777840909 | 15° C | 43% | 965 hPa | - | 0 m/s | - | - |
| 1777840610 | 15° C | 45% | 966.5 hPa | - | 0 m/s | - | - |
| 1777840312 | 13.89° C | 49% | 966.1 hPa | - | 0 m/s | - | - |
| 1777839714 | 16.11° C | 43% | 964.6 hPa | - | 0 m/s | - | - |
| 1777839415 | 15° C | 44% | 965.1 hPa | - | 0 m/s | - | - |
| 1777839117 | 15° C | 45% | 965.3 hPa | - | 0 m/s | - | - |
* Rain since midnight (hover to see other rain measurements)
** Current wind speed in m/s (hover to see current wind gust speed)